sensor_id;sensor_type;location;lat;lon;timestamp;pressure;altitude;pressure_sealevel;temperature;humidity
20710;BME280;10516;51.518;9.864;2023-10-08T00:00:13;99191.50;;;16.34;81.68
20710;BME280;10516;51.518;9.864;2023-10-08T00:02:57;99190.97;;;16.37;81.67
20710;BME280;10516;51.518;9.864;2023-10-08T00:05:22;99177.25;;;16.29;81.56
20710;BME280;10516;51.518;9.864;2023-10-08T00:07:48;99201.13;;;16.45;81.46
20710;BME280;10516;51.518;9.864;2023-10-08T00:10:14;99190.97;;;16.32;81.59
20710;BME280;10516;51.518;9.864;2023-10-08T00:12:39;99193.38;;;16.34;81.48
20710;BME280;10516;51.518;9.864;2023-10-08T00:15:05;99199.03;;;16.37;81.83
20710;BME280;10516;51.518;9.864;2023-10-08T00:17:35;99209.59;;;16.24;82.17
20710;BME280;10516;51.518;9.864;2023-10-08T00:20:00;99211.41;;;16.38;81.97
20710;BME280;10516;51.518;9.864;2023-10-08T00:22:26;99206.59;;;16.35;82.02
20710;BME280;10516;51.518;9.864;2023-10-08T00:24:51;99196.38;;;16.27;81.69
20710;BME280;10516;51.518;9.864;2023-10-08T00:27:22;99212.81;;;16.26;81.52
20710;BME280;10516;51.518;9.864;2023-10-08T00:29:48;99201.50;;;16.29;81.82
20710;BME280;10516;51.518;9.864;2023-10-08T00:32:13;99210.34;;;16.34;81.75
20710;BME280;10516;51.518;9.864;2023-10-08T00:34:41;99220.31;;;16.34;82.12
20710;BME280;10516;51.518;9.864;2023-10-08T00:37:11;99211.47;;;16.28;82.15
20710;BME280;10516;51.518;9.864;2023-10-08T00:39:39;99221.66;;;16.36;82.02
20710;BME280;10516;51.518;9.864;2023-10-08T00:42:06;99203.16;;;16.20;82.46
20710;BME280;10516;51.518;9.864;2023-10-08T00:44:36;99216.03;;;16.28;81.94
20710;BME280;10516;51.518;9.864;2023-10-08T00:47:16;99229.78;;;16.31;82.08
20710;BME280;10516;51.518;9.864;2023-10-08T00:49:42;99197.78;;;16.15;82.45
20710;BME280;10516;51.518;9.864;2023-10-08T00:52:16;99229.22;;;16.29;82.29
20710;BME280;10516;51.518;9.864;2023-10-08T00:54:42;99201.81;;;16.22;82.28
20710;BME280;10516;51.518;9.864;2023-10-08T00:57:26;99237.34;;;16.19;82.73
20710;BME280;10516;51.518;9.864;2023-10-08T00:59:52;99223.06;;;16.24;82.52
20710;BME280;10516;51.518;9.864;2023-10-08T01:02:31;99250.00;;;16.24;82.78
20710;BME280;10516;51.518;9.864;2023-10-08T01:05:14;99241.41;;;16.22;83.32
20710;BME280;10516;51.518;9.864;2023-10-08T01:08:11;99220.97;;;16.16;82.61
20710;BME280;10516;51.518;9.864;2023-10-08T01:10:38;99222.59;;;16.02;83.50
20710;BME280;10516;51.518;9.864;2023-10-08T01:13:05;99206.47;;;15.97;84.01
20710;BME280;10516;51.518;9.864;2023-10-08T01:15:36;99206.97;;;16.04;83.33
20710;BME280;10516;51.518;9.864;2023-10-08T01:18:02;99237.13;;;16.06;83.63
20710;BME280;10516;51.518;9.864;2023-10-08T01:20:31;99219.13;;;15.96;83.98
20710;BME280;10516;51.518;9.864;2023-10-08T01:25:44;99245.19;;;16.11;84.06
20710;BME280;10516;51.518;9.864;2023-10-08T01:28:48;99245.78;;;15.98;84.17
20710;BME280;10516;51.518;9.864;2023-10-08T01:31:13;99233.13;;;15.93;84.31
20710;BME280;10516;51.518;9.864;2023-10-08T01:33:40;99239.06;;;15.90;84.24
20710;BME280;10516;51.518;9.864;2023-10-08T01:36:15;99227.75;;;15.98;83.63
20710;BME280;10516;51.518;9.864;2023-10-08T01:38:41;99246.03;;;16.01;84.85
20710;BME280;10516;51.518;9.864;2023-10-08T01:41:13;99238.81;;;15.92;84.85
20710;BME280;10516;51.518;9.864;2023-10-08T01:43:48;99245.25;;;15.91;84.86
20710;BME280;10516;51.518;9.864;2023-10-08T01:46:17;99265.97;;;15.95;84.96
20710;BME280;10516;51.518;9.864;2023-10-08T01:48:46;99250.09;;;15.84;85.07
20710;BME280;10516;51.518;9.864;2023-10-08T01:51:13;99277.59;;;15.86;85.63
20710;BME280;10516;51.518;9.864;2023-10-08T01:53:50;99236.41;;;15.85;84.85
20710;BME280;10516;51.518;9.864;2023-10-08T01:56:15;99260.09;;;15.83;85.08
20710;BME280;10516;51.518;9.864;2023-10-08T01:58:43;99260.38;;;15.71;86.34
20710;BME280;10516;51.518;9.864;2023-10-08T02:01:08;99272.50;;;15.79;86.19
20710;BME280;10516;51.518;9.864;2023-10-08T02:03:37;99256.88;;;15.76;86.83
20710;BME280;10516;51.518;9.864;2023-10-08T02:06:03;99267.88;;;15.80;86.73
20710;BME280;10516;51.518;9.864;2023-10-08T02:08:31;99266.56;;;15.67;87.45
20710;BME280;10516;51.518;9.864;2023-10-08T02:10:57;99265.75;;;15.71;87.08
20710;BME280;10516;51.518;9.864;2023-10-08T02:13:22;99262.78;;;15.73;86.55
20710;BME280;10516;51.518;9.864;2023-10-08T02:15:51;99276.81;;;15.70;87.06
20710;BME280;10516;51.518;9.864;2023-10-08T02:18:20;99271.13;;;15.77;86.30
20710;BME280;10516;51.518;9.864;2023-10-08T02:20:48;99266.53;;;15.77;86.56
20710;BME280;10516;51.518;9.864;2023-10-08T02:23:13;99260.66;;;15.70;87.06
20710;BME280;10516;51.518;9.864;2023-10-08T02:25:39;99253.41;;;15.50;88.28
20710;BME280;10516;51.518;9.864;2023-10-08T02:28:06;99282.97;;;15.55;87.62
20710;BME280;10516;51.518;9.864;2023-10-08T02:30:36;99285.41;;;15.67;86.33
20710;BME280;10516;51.518;9.864;2023-10-08T02:33:02;99307.13;;;15.05;92.74
20710;BME280;10516;51.518;9.864;2023-10-08T02:35:27;99325.28;;;14.16;91.85
20710;BME280;10516;51.518;9.864;2023-10-08T02:37:53;99352.28;;;13.63;89.94
20710;BME280;10516;51.518;9.864;2023-10-08T02:40:20;99367.00;;;12.42;94.49
20710;BME280;10516;51.518;9.864;2023-10-08T02:42:52;99393.28;;;12.66;96.12
20710;BME280;10516;51.518;9.864;2023-10-08T02:45:25;99398.59;;;12.07;94.98
20710;BME280;10516;51.518;9.864;2023-10-08T02:47:50;99395.19;;;11.50;96.68
20710;BME280;10516;51.518;9.864;2023-10-08T02:50:18;99388.88;;;11.39;97.98
20710;BME280;10516;51.518;9.864;2023-10-08T02:52:43;99360.69;;;11.48;99.03
20710;BME280;10516;51.518;9.864;2023-10-08T02:55:12;99376.25;;;11.51;99.10
20710;BME280;10516;51.518;9.864;2023-10-08T02:57:52;99398.34;;;11.47;99.23
20710;BME280;10516;51.518;9.864;2023-10-08T03:00:17;99372.81;;;12.00;98.70
20710;BME280;10516;51.518;9.864;2023-10-08T03:02:46;99357.66;;;11.89;97.39
20710;BME280;10516;51.518;9.864;2023-10-08T03:05:12;99358.75;;;12.10;96.41
20710;BME280;10516;51.518;9.864;2023-10-08T03:07:43;99351.88;;;12.14;94.97
20710;BME280;10516;51.518;9.864;2023-10-08T03:10:09;99351.66;;;11.99;95.62
20710;BME280;10516;51.518;9.864;2023-10-08T03:12:45;99306.25;;;12.26;96.52
20710;BME280;10516;51.518;9.864;2023-10-08T03:15:15;99331.38;;;12.03;94.21
20710;BME280;10516;51.518;9.864;2023-10-08T03:18:03;99292.72;;;11.94;95.77
20710;BME280;10516;51.518;9.864;2023-10-08T03:20:40;99342.34;;;12.23;95.01
20710;BME280;10516;51.518;9.864;2023-10-08T03:23:13;99354.41;;;11.71;97.26
20710;BME280;10516;51.518;9.864;2023-10-08T03:25:57;99352.31;;;12.28;94.73
20710;BME280;10516;51.518;9.864;2023-10-08T03:28:30;99371.53;;;12.85;93.91
20710;BME280;10516;51.518;9.864;2023-10-08T03:31:00;99386.91;;;11.96;93.39
20710;BME280;10516;51.518;9.864;2023-10-08T03:33:30;99389.88;;;12.71;94.14
20710;BME280;10516;51.518;9.864;2023-10-08T03:36:03;99366.88;;;12.53;91.36
20710;BME280;10516;51.518;9.864;2023-10-08T03:38:36;99332.75;;;12.65;93.61
20710;BME280;10516;51.518;9.864;2023-10-08T03:41:16;99360.09;;;12.67;93.18
20710;BME280;10516;51.518;9.864;2023-10-08T03:43:42;99374.13;;;11.98;94.51
20710;BME280;10516;51.518;9.864;2023-10-08T03:46:30;99385.84;;;12.14;95.98
20710;BME280;10516;51.518;9.864;2023-10-08T03:48:57;99367.34;;;12.29;94.60
20710;BME280;10516;51.518;9.864;2023-10-08T03:51:23;99362.97;;;12.06;93.65
20710;BME280;10516;51.518;9.864;2023-10-08T03:53:53;99347.19;;;13.08;92.77
20710;BME280;10516;51.518;9.864;2023-10-08T03:56:32;99342.44;;;12.71;91.44
20710;BME280;10516;51.518;9.864;2023-10-08T03:59:02;99361.38;;;12.87;91.63
20710;BME280;10516;51.518;9.864;2023-10-08T04:01:39;99377.06;;;12.35;91.67
20710;BME280;10516;51.518;9.864;2023-10-08T04:04:06;99385.53;;;11.93;95.05
20710;BME280;10516;51.518;9.864;2023-10-08T04:06:37;99409.69;;;11.82;97.13
20710;BME280;10516;51.518;9.864;2023-10-08T04:09:05;99394.66;;;10.80;97.17
20710;BME280;10516;51.518;9.864;2023-10-08T04:11:33;99406.47;;;10.32;95.98
20710;BME280;10516;51.518;9.864;2023-10-08T04:14:08;99431.84;;;10.46;95.27
20710;BME280;10516;51.518;9.864;2023-10-08T04:16:34;99432.06;;;10.10;96.43
20710;BME280;10516;51.518;9.864;2023-10-08T04:19:03;99447.69;;;10.88;95.24
20710;BME280;10516;51.518;9.864;2023-10-08T04:21:29;99440.94;;;10.57;94.06
20710;BME280;10516;51.518;9.864;2023-10-08T04:23:55;99456.13;;;10.45;94.56
20710;BME280;10516;51.518;9.864;2023-10-08T04:26:23;99450.88;;;10.73;93.77
20710;BME280;10516;51.518;9.864;2023-10-08T04:28:51;99478.88;;;10.47;95.39
20710;BME280;10516;51.518;9.864;2023-10-08T04:31:20;99470.00;;;10.82;91.59
20710;BME280;10516;51.518;9.864;2023-10-08T04:33:50;99467.06;;;9.49;95.01
20710;BME280;10516;51.518;9.864;2023-10-08T04:36:16;99470.03;;;10.24;94.30
20710;BME280;10516;51.518;9.864;2023-10-08T04:38:43;99488.03;;;9.99;94.09
20710;BME280;10516;51.518;9.864;2023-10-08T04:41:11;99472.94;;;9.81;94.35
20710;BME280;10516;51.518;9.864;2023-10-08T04:43:36;99478.78;;;9.60;95.78
20710;BME280;10516;51.518;9.864;2023-10-08T04:46:08;99492.44;;;10.69;95.80
20710;BME280;10516;51.518;9.864;2023-10-08T04:48:44;99484.88;;;10.20;93.05
20710;BME280;10516;51.518;9.864;2023-10-08T04:51:09;99500.84;;;10.08;93.75
20710;BME280;10516;51.518;9.864;2023-10-08T04:53:38;99503.31;;;10.91;93.68
20710;BME280;10516;51.518;9.864;2023-10-08T04:56:10;99499.38;;;11.05;93.26
20710;BME280;10516;51.518;9.864;2023-10-08T04:58:39;99517.75;;;10.90;91.02
20710;BME280;10516;51.518;9.864;2023-10-08T05:01:07;99497.41;;;10.89;93.89
20710;BME280;10516;51.518;9.864;2023-10-08T05:03:52;99504.88;;;10.64;92.01
20710;BME280;10516;51.518;9.864;2023-10-08T05:06:28;99505.09;;;10.62;93.99
20710;BME280;10516;51.518;9.864;2023-10-08T05:09:06;99517.63;;;10.85;88.58
20710;BME280;10516;51.518;9.864;2023-10-08T05:11:57;99516.53;;;9.57;92.07
20710;BME280;10516;51.518;9.864;2023-10-08T05:14:45;99528.31;;;10.09;95.99
20710;BME280;10516;51.518;9.864;2023-10-08T05:17:33;99501.75;;;8.95;93.59
20710;BME280;10516;51.518;9.864;2023-10-08T05:20:11;99533.16;;;9.04;95.87
20710;BME280;10516;51.518;9.864;2023-10-08T05:22:55;99523.59;;;8.36;96.46
20710;BME280;10516;51.518;9.864;2023-10-08T05:25:42;99551.69;;;9.95;96.87
20710;BME280;10516;51.518;9.864;2023-10-08T05:28:23;99535.34;;;9.44;94.19
20710;BME280;10516;51.518;9.864;2023-10-08T05:30:52;99534.38;;;9.09;93.32
20710;BME280;10516;51.518;9.864;2023-10-08T05:33:40;99538.31;;;8.81;95.79
20710;BME280;10516;51.518;9.864;2023-10-08T05:36:24;99531.59;;;10.11;93.04
20710;BME280;10516;51.518;9.864;2023-10-08T05:39:18;99539.28;;;10.01;90.92
20710;BME280;10516;51.518;9.864;2023-10-08T05:41:51;99542.00;;;9.53;91.26
20710;BME280;10516;51.518;9.864;2023-10-08T05:44:17;99545.59;;;10.47;90.64
20710;BME280;10516;51.518;9.864;2023-10-08T05:46:43;99562.19;;;10.61;93.38
20710;BME280;10516;51.518;9.864;2023-10-08T05:49:21;99575.28;;;10.51;93.75
20710;BME280;10516;51.518;9.864;2023-10-08T05:51:56;99557.34;;;9.39;92.06
20710;BME280;10516;51.518;9.864;2023-10-08T05:54:23;99569.19;;;9.25;93.29
20710;BME280;10516;51.518;9.864;2023-10-08T05:57:05;99584.22;;;9.01;92.70
20710;BME280;10516;51.518;9.864;2023-10-08T05:59:47;99587.81;;;8.64;94.03
20710;BME280;10516;51.518;9.864;2023-10-08T06:02:24;99601.09;;;9.32;93.52
20710;BME280;10516;51.518;9.864;2023-10-08T06:07:51;99614.53;;;10.21;86.12
20710;BME280;10516;51.518;9.864;2023-10-08T06:10:23;99647.53;;;11.72;87.35
20710;BME280;10516;51.518;9.864;2023-10-08T06:13:01;99639.75;;;12.55;81.89
20710;BME280;10516;51.518;9.864;2023-10-08T06:15:37;99653.50;;;12.02;83.08
20710;BME280;10516;51.518;9.864;2023-10-08T06:18:26;99658.50;;;12.55;81.26
20710;BME280;10516;51.518;9.864;2023-10-08T06:20:53;99653.88;;;12.50;80.78
20710;BME280;10516;51.518;9.864;2023-10-08T06:23:21;99671.59;;;12.68;80.21
20710;BME280;10516;51.518;9.864;2023-10-08T06:25:49;99682.25;;;12.79;78.94
20710;BME280;10516;51.518;9.864;2023-10-08T06:28:26;99673.19;;;12.69;79.28
20710;BME280;10516;51.518;9.864;2023-10-08T06:30:54;99654.38;;;12.64;79.43
20710;BME280;10516;51.518;9.864;2023-10-08T06:33:21;99670.84;;;12.28;80.32
20710;BME280;10516;51.518;9.864;2023-10-08T06:35:47;99680.75;;;12.27;80.65
20710;BME280;10516;51.518;9.864;2023-10-08T06:38:31;99666.00;;;12.41;80.21
20710;BME280;10516;51.518;9.864;2023-10-08T06:40:58;99685.25;;;12.38;80.43
20710;BME280;10516;51.518;9.864;2023-10-08T06:43:32;99670.09;;;12.44;80.35
20710;BME280;10516;51.518;9.864;2023-10-08T06:45:59;99675.97;;;12.57;79.31
20710;BME280;10516;51.518;9.864;2023-10-08T06:48:25;99659.06;;;12.57;79.29
20710;BME280;10516;51.518;9.864;2023-10-08T06:50:52;99681.38;;;12.62;79.56
20710;BME280;10516;51.518;9.864;2023-10-08T06:53:24;99663.84;;;12.55;79.02
20710;BME280;10516;51.518;9.864;2023-10-08T06:55:50;99666.63;;;12.60;79.27
20710;BME280;10516;51.518;9.864;2023-10-08T06:58:24;99673.44;;;12.51;79.50
20710;BME280;10516;51.518;9.864;2023-10-08T07:00:49;99677.97;;;12.50;79.38
20710;BME280;10516;51.518;9.864;2023-10-08T07:03:16;99672.94;;;12.54;78.80
20710;BME280;10516;51.518;9.864;2023-10-08T07:05:47;99685.28;;;12.55;79.12
20710;BME280;10516;51.518;9.864;2023-10-08T07:08:32;99683.94;;;12.41;79.19
20710;BME280;10516;51.518;9.864;2023-10-08T07:10:59;99714.31;;;12.18;79.66
20710;BME280;10516;51.518;9.864;2023-10-08T07:13:26;99702.41;;;11.86;82.12
20710;BME280;10516;51.518;9.864;2023-10-08T07:15:55;99721.09;;;11.51;81.50
20710;BME280;10516;51.518;9.864;2023-10-08T07:18:21;99738.94;;;12.32;81.41
20710;BME280;10516;51.518;9.864;2023-10-08T07:20:56;99703.75;;;12.40;80.60
20710;BME280;10516;51.518;9.864;2023-10-08T07:23:26;99716.31;;;12.39;80.40
20710;BME280;10516;51.518;9.864;2023-10-08T07:25:57;99738.22;;;12.64;79.79
20710;BME280;10516;51.518;9.864;2023-10-08T07:28:39;99747.84;;;12.77;78.84
20710;BME280;10516;51.518;9.864;2023-10-08T07:31:24;99744.47;;;11.56;82.13
20710;BME280;10516;51.518;9.864;2023-10-08T07:33:51;99768.13;;;11.06;83.54
20710;BME280;10516;51.518;9.864;2023-10-08T07:36:25;99770.78;;;11.93;82.22
20710;BME280;10516;51.518;9.864;2023-10-08T07:38:52;99764.13;;;11.50;82.42
20710;BME280;10516;51.518;9.864;2023-10-08T07:41:17;99772.44;;;10.47;80.91
20710;BME280;10516;51.518;9.864;2023-10-08T07:43:46;99763.16;;;11.21;84.60
20710;BME280;10516;51.518;9.864;2023-10-08T07:46:18;99774.22;;;11.24;83.93
20710;BME280;10516;51.518;9.864;2023-10-08T07:48:43;99760.97;;;11.64;82.75
20710;BME280;10516;51.518;9.864;2023-10-08T07:51:09;99753.19;;;12.09;80.14
20710;BME280;10516;51.518;9.864;2023-10-08T07:53:34;99778.34;;;12.48;79.20
20710;BME280;10516;51.518;9.864;2023-10-08T07:56:04;99765.09;;;12.41;78.59
20710;BME280;10516;51.518;9.864;2023-10-08T07:58:35;99779.47;;;12.52;78.57
20710;BME280;10516;51.518;9.864;2023-10-08T08:01:07;99762.97;;;12.43;78.29
20710;BME280;10516;51.518;9.864;2023-10-08T08:03:34;99783.66;;;12.59;77.96
20710;BME280;10516;51.518;9.864;2023-10-08T08:06:05;99791.13;;;12.57;77.52
20710;BME280;10516;51.518;9.864;2023-10-08T08:08:35;99789.41;;;12.51;77.34
20710;BME280;10516;51.518;9.864;2023-10-08T08:11:05;99784.84;;;12.52;77.65
20710;BME280;10516;51.518;9.864;2023-10-08T08:13:34;99776.81;;;12.52;77.89
20710;BME280;10516;51.518;9.864;2023-10-08T08:16:00;99788.00;;;12.49;78.42
20710;BME280;10516;51.518;9.864;2023-10-08T08:18:36;99786.03;;;12.44;78.49
20710;BME280;10516;51.518;9.864;2023-10-08T08:21:02;99791.72;;;12.48;78.51
20710;BME280;10516;51.518;9.864;2023-10-08T08:23:30;99787.19;;;12.48;78.37
20710;BME280;10516;51.518;9.864;2023-10-08T08:25:57;99788.34;;;12.41;78.93
20710;BME280;10516;51.518;9.864;2023-10-08T08:28:38;99796.69;;;12.56;78.42
20710;BME280;10516;51.518;9.864;2023-10-08T08:31:05;99784.69;;;12.58;77.82
20710;BME280;10516;51.518;9.864;2023-10-08T08:33:40;99766.59;;;12.49;77.96
20710;BME280;10516;51.518;9.864;2023-10-08T08:36:19;99784.47;;;12.60;77.82
20710;BME280;10516;51.518;9.864;2023-10-08T08:38:44;99791.19;;;12.62;77.84
20710;BME280;10516;51.518;9.864;2023-10-08T08:41:10;99789.00;;;12.59;78.02
20710;BME280;10516;51.518;9.864;2023-10-08T08:43:38;99797.28;;;12.58;77.69
20710;BME280;10516;51.518;9.864;2023-10-08T08:46:10;99803.22;;;12.60;77.41
20710;BME280;10516;51.518;9.864;2023-10-08T08:48:43;99782.06;;;12.47;77.76
20710;BME280;10516;51.518;9.864;2023-10-08T08:51:11;99799.63;;;12.54;77.70
20710;BME280;10516;51.518;9.864;2023-10-08T08:53:38;99803.69;;;12.57;76.93
20710;BME280;10516;51.518;9.864;2023-10-08T08:56:08;99812.69;;;12.51;77.24
20710;BME280;10516;51.518;9.864;2023-10-08T08:58:35;99834.88;;;12.63;76.17
20710;BME280;10516;51.518;9.864;2023-10-08T09:01:00;99821.53;;;12.51;77.08
20710;BME280;10516;51.518;9.864;2023-10-08T09:03:29;99820.34;;;12.59;76.29
20710;BME280;10516;51.518;9.864;2023-10-08T09:05:58;99824.88;;;12.58;77.09
20710;BME280;10516;51.518;9.864;2023-10-08T09:08:36;99832.19;;;12.63;77.43
20710;BME280;10516;51.518;9.864;2023-10-08T09:11:03;99825.81;;;12.64;77.28
20710;BME280;10516;51.518;9.864;2023-10-08T09:13:34;99836.38;;;12.70;77.40
20710;BME280;10516;51.518;9.864;2023-10-08T09:16:14;99827.41;;;12.65;77.69
20710;BME280;10516;51.518;9.864;2023-10-08T09:18:47;99824.72;;;12.65;77.15
20710;BME280;10516;51.518;9.864;2023-10-08T09:21:19;99820.56;;;12.57;78.30
20710;BME280;10516;51.518;9.864;2023-10-08T09:23:51;99822.72;;;12.72;77.49
20710;BME280;10516;51.518;9.864;2023-10-08T09:26:18;99821.59;;;12.68;78.13
20710;BME280;10516;51.518;9.864;2023-10-08T09:28:47;99832.91;;;12.87;76.46
20710;BME280;10516;51.518;9.864;2023-10-08T09:31:14;99839.28;;;12.69;77.82
20710;BME280;10516;51.518;9.864;2023-10-08T09:33:40;99853.88;;;12.90;75.74
20710;BME280;10516;51.518;9.864;2023-10-08T09:36:07;99841.75;;;12.59;77.80
20710;BME280;10516;51.518;9.864;2023-10-08T09:38:36;99840.50;;;12.90;75.43
20710;BME280;10516;51.518;9.864;2023-10-08T09:41:02;99842.34;;;12.49;75.85
20710;BME280;10516;51.518;9.864;2023-10-08T09:43:29;99856.88;;;12.65;76.55
20710;BME280;10516;51.518;9.864;2023-10-08T09:46:18;99867.72;;;13.10;75.13
20710;BME280;10516;51.518;9.864;2023-10-08T09:48:50;99864.50;;;13.24;74.15
20710;BME280;10516;51.518;9.864;2023-10-08T09:51:19;99845.44;;;13.09;74.38
20710;BME280;10516;51.518;9.864;2023-10-08T09:56:39;99867.03;;;13.31;73.90
20710;BME280;10516;51.518;9.864;2023-10-08T09:59:05;99872.69;;;13.18;73.76
20710;BME280;10516;51.518;9.864;2023-10-08T10:01:32;99884.63;;;13.10;73.72
20710;BME280;10516;51.518;9.864;2023-10-08T10:03:59;99883.50;;;13.23;73.47
20710;BME280;10516;51.518;9.864;2023-10-08T10:06:28;99895.13;;;13.28;72.97
20710;BME280;10516;51.518;9.864;2023-10-08T10:08:55;99894.69;;;13.20;73.26
20710;BME280;10516;51.518;9.864;2023-10-08T10:11:29;99880.72;;;13.18;73.33
20710;BME280;10516;51.518;9.864;2023-10-08T10:14:01;99864.34;;;13.31;72.78
20710;BME280;10516;51.518;9.864;2023-10-08T10:16:28;99842.41;;;13.34;72.07
20710;BME280;10516;51.518;9.864;2023-10-08T10:18:59;99845.16;;;13.39;72.26
20710;BME280;10516;51.518;9.864;2023-10-08T10:21:27;99841.84;;;13.32;72.31
20710;BME280;10516;51.518;9.864;2023-10-08T10:23:54;99848.34;;;13.36;72.27
20710;BME280;10516;51.518;9.864;2023-10-08T10:31:39;99840.31;;;13.52;71.83
20710;BME280;10516;51.518;9.864;2023-10-08T10:34:08;99845.78;;;13.41;73.77
20710;BME280;10516;51.518;9.864;2023-10-08T10:36:37;99855.94;;;13.56;71.99
20710;BME280;10516;51.518;9.864;2023-10-08T10:39:05;99853.88;;;13.46;73.10
20710;BME280;10516;51.518;9.864;2023-10-08T10:41:52;99863.66;;;13.69;71.69
20710;BME280;10516;51.518;9.864;2023-10-08T10:44:23;99869.44;;;13.77;71.18
20710;BME280;10516;51.518;9.864;2023-10-08T10:46:49;99888.38;;;13.71;70.93
20710;BME280;10516;51.518;9.864;2023-10-08T10:49:21;99892.59;;;13.67;70.55
20710;BME280;10516;51.518;9.864;2023-10-08T10:51:50;99873.47;;;13.63;70.53
20710;BME280;10516;51.518;9.864;2023-10-08T10:54:29;99903.34;;;13.67;70.49
20710;BME280;10516;51.518;9.864;2023-10-08T10:57:01;99915.53;;;13.74;70.30
20710;BME280;10516;51.518;9.864;2023-10-08T10:59:45;99913.19;;;13.78;69.96
20710;BME280;10516;51.518;9.864;2023-10-08T11:02:18;99923.19;;;13.82;70.13
20710;BME280;10516;51.518;9.864;2023-10-08T11:04:56;99934.50;;;13.84;70.06
20710;BME280;10516;51.518;9.864;2023-10-08T11:07:32;99935.13;;;13.75;70.89
20710;BME280;10516;51.518;9.864;2023-10-08T11:09:59;99910.25;;;13.79;70.15
20710;BME280;10516;51.518;9.864;2023-10-08T11:12:24;99899.25;;;13.81;70.37
20710;BME280;10516;51.518;9.864;2023-10-08T11:15:11;99900.25;;;13.91;69.92
20710;BME280;10516;51.518;9.864;2023-10-08T11:17:41;99901.41;;;13.95;70.06
20710;BME280;10516;51.518;9.864;2023-10-08T11:20:27;99894.72;;;13.98;69.71
20710;BME280;10516;51.518;9.864;2023-10-08T11:22:53;99887.91;;;13.90;69.84
20710;BME280;10516;51.518;9.864;2023-10-08T11:25:25;99889.69;;;14.01;69.90
20710;BME280;10516;51.518;9.864;2023-10-08T11:27:56;99880.00;;;14.00;69.95
20710;BME280;10516;51.518;9.864;2023-10-08T11:30:27;99839.31;;;13.92;69.78
20710;BME280;10516;51.518;9.864;2023-10-08T11:32:57;99851.75;;;13.98;70.52
20710;BME280;10516;51.518;9.864;2023-10-08T11:35:22;99866.22;;;14.13;70.58
20710;BME280;10516;51.518;9.864;2023-10-08T11:37:48;99871.03;;;14.28;70.18
20710;BME280;10516;51.518;9.864;2023-10-08T11:40:42;99867.78;;;14.26;70.24
20710;BME280;10516;51.518;9.864;2023-10-08T11:43:24;99864.19;;;14.20;69.80
20710;BME280;10516;51.518;9.864;2023-10-08T11:45:51;99867.31;;;14.12;70.13
20710;BME280;10516;51.518;9.864;2023-10-08T11:48:17;99866.56;;;14.17;69.51
20710;BME280;10516;51.518;9.864;2023-10-08T11:50:51;99851.59;;;14.21;69.47
20710;BME280;10516;51.518;9.864;2023-10-08T11:53:16;99829.53;;;14.19;69.49
20710;BME280;10516;51.518;9.864;2023-10-08T11:55:44;99844.81;;;14.35;69.01
20710;BME280;10516;51.518;9.864;2023-10-08T11:58:13;99849.69;;;14.38;69.08
20710;BME280;10516;51.518;9.864;2023-10-08T12:00:44;99835.78;;;14.41;69.52
20710;BME280;10516;51.518;9.864;2023-10-08T12:03:13;99856.75;;;14.44;69.43
20710;BME280;10516;51.518;9.864;2023-10-08T12:05:43;99845.97;;;14.39;69.90
20710;BME280;10516;51.518;9.864;2023-10-08T12:08:14;99849.03;;;14.48;68.93
20710;BME280;10516;51.518;9.864;2023-10-08T12:10:42;99834.84;;;14.52;68.81
20710;BME280;10516;51.518;9.864;2023-10-08T12:13:08;99850.44;;;14.55;68.91
20710;BME280;10516;51.518;9.864;2023-10-08T12:15:35;99834.34;;;14.55;68.35
20710;BME280;10516;51.518;9.864;2023-10-08T12:18:06;99848.03;;;14.54;68.62
20710;BME280;10516;51.518;9.864;2023-10-08T12:20:41;99849.97;;;14.58;69.19
20710;BME280;10516;51.518;9.864;2023-10-08T12:23:11;99848.31;;;14.57;68.66
20710;BME280;10516;51.518;9.864;2023-10-08T12:25:37;99833.41;;;14.45;69.16
20710;BME280;10516;51.518;9.864;2023-10-08T12:28:03;99842.47;;;14.60;68.78
20710;BME280;10516;51.518;9.864;2023-10-08T12:30:33;99817.91;;;14.30;69.13
20710;BME280;10516;51.518;9.864;2023-10-08T12:33:07;99827.00;;;14.51;68.53
20710;BME280;10516;51.518;9.864;2023-10-08T12:35:33;99837.38;;;14.64;67.98
20710;BME280;10516;51.518;9.864;2023-10-08T12:37:58;99813.50;;;14.24;67.71
20710;BME280;10516;51.518;9.864;2023-10-08T12:40:23;99820.41;;;14.58;68.79
20710;BME280;10516;51.518;9.864;2023-10-08T12:42:52;99830.47;;;14.89;67.96
20710;BME280;10516;51.518;9.864;2023-10-08T12:45:18;99823.59;;;14.55;67.07
20710;BME280;10516;51.518;9.864;2023-10-08T12:47:55;99827.19;;;14.87;67.49
20710;BME280;10516;51.518;9.864;2023-10-08T12:50:20;99811.06;;;14.87;67.98
20710;BME280;10516;51.518;9.864;2023-10-08T12:52:57;99817.75;;;15.12;67.05
20710;BME280;10516;51.518;9.864;2023-10-08T12:55:29;99808.13;;;15.16;67.01
20710;BME280;10516;51.518;9.864;2023-10-08T12:57:56;99798.50;;;15.20;67.11
20710;BME280;10516;51.518;9.864;2023-10-08T13:00:33;99792.72;;;15.38;66.48
20710;BME280;10516;51.518;9.864;2023-10-08T13:02:59;99783.09;;;15.42;66.73
20710;BME280;10516;51.518;9.864;2023-10-08T13:05:26;99788.72;;;15.40;65.58
20710;BME280;10516;51.518;9.864;2023-10-08T13:07:56;99783.47;;;15.50;66.88
20710;BME280;10516;51.518;9.864;2023-10-08T13:10:25;99788.63;;;15.57;66.40
20710;BME280;10516;51.518;9.864;2023-10-08T13:12:51;99756.22;;;15.47;66.51
20710;BME280;10516;51.518;9.864;2023-10-08T13:15:17;99781.81;;;15.49;67.16
20710;BME280;10516;51.518;9.864;2023-10-08T13:17:43;99757.41;;;15.29;67.16
20710;BME280;10516;51.518;9.864;2023-10-08T13:20:13;99768.97;;;15.30;67.10
20710;BME280;10516;51.518;9.864;2023-10-08T13:22:39;99761.13;;;15.23;67.31
20710;BME280;10516;51.518;9.864;2023-10-08T13:25:06;99756.84;;;15.27;66.10
20710;BME280;10516;51.518;9.864;2023-10-08T13:27:31;99743.66;;;15.26;67.55
20710;BME280;10516;51.518;9.864;2023-10-08T13:29:57;99755.34;;;15.10;67.22
20710;BME280;10516;51.518;9.864;2023-10-08T13:32:24;99754.91;;;15.18;67.00